VTPH/HHQ METAR and TAF weather

Enter ICAO airport designator
Station Type Date Time Source
VTPH METAR 2020/09/27 11:00 UTC NOAA

VTPH 271100Z VRB01KT 9999 FEW020 27/27 Q1005 NOSIG


Station Type Date Time Source
VTPH Decoded METAR 2020/09/27 11:00 UTC NOAA

Hua Hin, Thailand (VTPH) 12-35N 099-57E 6M
Sep 27, 2020 - 07:00 AM EDT / 2020.09.27 1100 UTC
Wind: Variable at 1 MPH (1 KT):0
Visibility: greater than 7 mile(s):0
Sky conditions: mostly clear
Temperature: 80 F (27 C)
Dew Point: 80 F (27 C)
Relative Humidity: 100%
Pressure (altimeter): 29.68 in. Hg (1005 hPa)
ob: VTPH 271100Z VRB01KT 9999 FEW020 27/27 Q1005 NOSIG
cycle: 11

Station Type Date Time Source
VTPH TAF 2020/09/27 18:00 UTC NOAA

TAF VTPH 271700Z 2718/2818 00000KT 9999 FEW030
BECMG 2802/2804 12008KT
BECMG 2814/2816 00000KT

Example: see airport list